YPPH/PER METAR and TAF weather

Enter ICAO airport designator
Station Type Date Time Source
YPPH METAR 2019/04/26 03:30 UTC NOAA

YPPH 260330Z 07015KT CAVOK 25/07 Q1025 FM0400 08012KT CAVOK


Station Type Date Time Source
YPPH Decoded METAR 2019/04/26 03:30 UTC NOAA

Belmont Perth Airport , Australia (YPPH) 31-56S 115-57E 29M
Apr 25, 2019 - 11:30 PM EDT / 2019.04.26 0330 UTC
Wind: from the ENE (070 degrees) at 17 MPH (15 KT):0
Visibility: greater than 7 mile(s):0
Temperature: 77 F (25 C)
Dew Point: 44 F (7 C)
Relative Humidity: 31%
Pressure (altimeter): 30.27 in. Hg (1025 hPa)
ob: YPPH 260330Z 07015KT CAVOK 25/07 Q1025 FM0400 08012KT CAVOK
cycle: 3

Station Type Date Time Source
YPPH TAF 2019/04/25 18:40 UTC NOAA

TAF
AMD YPPH 251835Z 2518/2624 08014G24KT CAVOK
FM260400 08012KT CAVOK

Example: see airport list